Battle Creek, Michigan
Current Conditions -  °F | °C
As of 8:53 PM on Monday 22 Dec 2014 (Local Time) from KBTL Reporting Station
Light Rain Light Rain  
Wind Chill: 29°   Ceiling: 4200
Heat Index: 36°   Visibility: 5mi
Dew Point: 32°   Wind: 9mph
Humidity: 86%   Direction: 90°E
Pressure: 29.81"   Gusts: NA
Location:  42.32°N, 85.18°W
Report Text: KBTL 230153Z 09008KT 5SM -RA BR SCT034 OVC042 02/00 A2981 RMK AO2 UPE0056RAB0056 SLP104 P0001 T00220000
Loading
Personal Weather Stations






























Interactive Weather Map New forecast layout! Learn more

10-Day Weather Forecast

Advertisements
Track Severe Weather on mobile